Flight Track Log - Related Links

Times and Time Zones

All times are in EDT time to prevent confusion due to time zone crossing. See the N710TJ flight status page for this flight to view local times or setup timezone preferences in your user account.

Time Position Orientation Groundspeed Altitude Reporting Facility
EDT Latitude Longitude Course Direction KTS MPH feet Rate Location/Type
Sun 02:21:00 PM 46.8054 -123.9973 292° West  Level FlightAware Approximate
Sun 02:22:00 PM 46.8204 -124.0523 292° West  Level FlightAware Approximate
Sun 02:23:00 PM 46.8280 -124.0982 167° South  Level FlightAware Approximate
Sun 02:23:50 PM 46.9547 -124.0775 168° South 98 113 3,600  Level Seattle Center
Sun 02:24:00 PM 46.7885 -124.0851 167° South  Level FlightAware Approximate
Sun 02:24:51 PM 46.9508 -124.1156 261° West 96 110 4,300  Level Seattle Center
Sun 02:25:00 PM 46.7492 -124.0709 166° South  Level FlightAware Approximate
Sun 02:25:52 PM 46.9456 -124.1522 258° West 94 108 4,900  Level Seattle Center
Sun 02:26:00 PM 46.7099 -124.0566 166° South  Level FlightAware Approximate
Sun 02:26:53 PM 46.9108 -124.1506 178° South 133 153 5,000  Level Seattle Center
Sun 02:27:00 PM 46.6705 -124.0423 166° South  Level FlightAware Approximate
Sun 02:27:54 PM 46.8722 -124.1278 158° South 146 168 4,900  Level Seattle Center
Sun 02:28:00 PM 46.6312 -124.0280 166° South  Level FlightAware Approximate
Sun 02:28:55 PM 46.8347 -124.1147 167° South 144 166 5,400  Level Seattle Center
Sun 02:29:00 PM 46.5918 -124.0141 168° South  Level FlightAware Approximate
Sun 02:29:56 PM 46.7986 -124.1031 168° South 137 158 5,800  Level Seattle Center
Sun 02:30:57 PM 46.7631 -124.0908 167° South 134 154 6,300 344 Climbing Seattle Center
Sun 02:31:58 PM 46.7267 -124.0778 166° South 134 154 6,500 98 Climbing Seattle Center
Sun 02:32:59 PM 46.6839 -124.0611 165° South 153 176 6,500  Level Seattle Center
Sun 02:34:00 PM 46.6400 -124.0456 166° South 159 183 6,500  Level Seattle Center
Sun 02:35:01 PM 46.5967 -124.0317 168° South 160 184 6,500  Level Seattle Center
Sun 02:36:02 PM 46.5442 -124.0142 167° South 161 185 6,500  Level Seattle Center
Sun 02:37:03 PM 46.5011 -123.9978 165° South 161 185 6,500  Level Seattle Center
Sun 02:38:04 PM 46.4578 -123.9831 167° South 160 184 6,500  Level Seattle Center
Sun 02:39:05 PM 46.4181 -123.9700 167° South 161 185 6,500  Level Seattle Center
Sun 02:40:06 PM 46.3753 -123.9544 166° South 160 184 6,500  Level Seattle Center
Sun 02:41:07 PM 46.3325 -123.9397 167° South 159 183 6,500  Level Seattle Center
Sun 02:42:08 PM 46.2894 -123.9236 166° South 159 183 6,500  Level Seattle Center
Sun 02:43:09 PM 46.2367 -123.9069 168° South 161 185 6,500 -49 Level Seattle Center
Sun 02:44:10 PM 46.1939 -123.8925 167° South 160 184 6,400  Descending Seattle Center
Sun 02:45:11 PM 46.1500 -123.8769 166° South 161 185 6,500 49 Climbing Seattle Center
Sun 02:46:12 PM 46.1089 -123.8553 160° South 159 183 6,500  Level Seattle Center
Sun 02:47:13 PM 46.0919 -123.7864 110° East 171 197 6,500  Level Seattle Center
Sun 02:48:14 PM 46.0747 -123.7206 111° Southeast 176 203 6,500  Level Seattle Center
Sun 02:49:15 PM 46.0564 -123.6564 112° Southeast 175 201 6,500  Level Seattle Center
Sun 02:50:16 PM 46.0375 -123.5908 113° Southeast 176 203 6,500  Level Seattle Center
Sun 02:50:58 PM 46.0228 -123.5361 111° Southeast 175 201 6,500  Level Seattle Center
Sun 02:51:17 PM 46.0183 -123.5267 124° Southeast 176 203 6,500  Level Seattle Center
Sun 02:51:34 PM 46.0092 -123.4983 115° Southeast 173 199 6,500 -98 Level Seattle Center
Sun 02:52:18 PM 46.0006 -123.4625 109° East 175 201 6,400  Descending Seattle Center
Sun 02:52:35 PM 45.9922 -123.4336 113° Southeast 174 200 6,500  Climbing Seattle Center
Sun 02:53:30 PM 45.9728 -123.3764 116° Southeast 176 203 6,400 -229 Descending Seattle Center
Sun 02:54:20 PM 45.9597 -123.3361 115° Southeast 175 201 6,100 -411 Descending Seattle Center
Sun 02:54:43 PM 45.9514 -123.3103 115° Southeast 173 199 5,900 -984 Descending Seattle Center
Sun 02:55:21 PM 45.9222 -123.2814 145° Southeast 171 197 5,100 -800 Descending Seattle Center
Sun 02:55:43 PM 45.9067 -123.2694 152° Southeast 160 184 5,100 -197 Level Seattle Center
Sun 02:56:22 PM 45.8847 -123.2525 152° Southeast 160 184 4,900 -179 Descending Seattle Center
Sun 02:56:50 PM 45.8681 -123.2383 149° Southeast 143 165 4,900  Level Seattle Center
Sun 02:57:23 PM 45.8486 -123.2242 153° Southeast 153 176 4,900  Level Seattle Center
Sun 02:57:51 PM 45.8328 -123.2122 152° Southeast 147 169 4,900  Level Seattle Center
Sun 02:58:24 PM 45.8133 -123.1989 154° Southeast 146 168 4,900 100 Level Seattle Center
Sun 02:58:51 PM 45.7947 -123.1839 151° Southeast 143 165 5,000  Climbing Seattle Center
Sun 02:59:25 PM 45.7781 -123.1714 152° Southeast 145 167 4,900 -98 Descending Seattle Center
Sun 02:59:52 PM 45.7589 -123.1550 149° Southeast 149 171 4,900 -197 Level Seattle Center
Sun 03:00:26 PM 45.7417 -123.1436 155° Southeast 147 169 4,700 -400 Descending Seattle Center
Sun 03:00:52 PM 45.7208 -123.1269 151° Southeast 156 180 4,500 -492 Descending Seattle Center
Sun 03:01:27 PM 45.7017 -123.1142 155° Southeast 153 176 4,200 -448 Descending Seattle Center
Sun 03:01:59 PM 45.6772 -123.0919 148° Southeast 164 189 4,000 -295 Descending Seattle Center
Sun 03:02:28 PM 45.6622 -123.0833 158° South 160 184 3,900 -327 Descending Seattle Center
Sun 03:02:54 PM 45.6419 -123.0661 149° Southeast 159 183 3,700 -197 Descending Seattle Center
Sun 03:03:29 PM 45.6231 -123.0544 157° South 159 183 3,700 -100 Level Seattle Center
Sun 03:03:54 PM 45.6039 -123.0381 149° Southeast 150 173 3,600 -98 Descending Seattle Center
Sun 03:04:30 PM 45.5858 -123.0253 154° Southeast 155 178 3,600  Level Seattle Center
Sun 03:04:55 PM 45.5633 -123.0081 152° Southeast 149 171 3,600  Level Seattle Center
Sun 03:05:31 PM 45.5492 -122.9975 152° Southeast 151 174 3,600  Level Seattle Center
Sun 03:06:02 PM 45.5247 -122.9772 150° Southeast 147 169 3,600  Level Seattle Center
Sun 03:06:32 PM 45.5133 -122.9708 159° South 148 170 3,600  Level Seattle Center
Sun 03:07:02 PM 45.4894 -122.9514 150° Southeast 149 171 3,600  Level Seattle Center
Sun 03:07:33 PM 45.4767 -122.9431 155° Southeast 148 170 3,600  Level Seattle Center
Sun 03:08:03 PM 45.4514 -122.9236 152° Southeast 149 171 3,600  Level Seattle Center
Sun 03:08:34 PM 45.4333 -122.9097 152° Southeast 148 170 3,600  Level Seattle Center
Sun 03:08:57 PM 45.4206 -122.8992 150° Southeast 140 161 3,600  Level Seattle Center
Sun 03:09:36 PM 45.4050 -122.8886 155° Southeast 145 167 3,600  Level Seattle Center

Login

Don't have an account? Register now (free) for customized features, flight alerts, and more!